Latest Weather Observations for Mount Ginini

IDN60801

Issued at 5:35 pm EST Thursday 18 September 2014 (issued every 30 minutes, with the page automatically refreshed every 10 minutes)

About weather observations | Map of weather stations | Latest weather observations for NSW | Other Formats
Station Details ID: 070349 Name: MOUNT GININI AWS Lat: -35.53 Lon: 148.77 Height: 1760.0 m
Data from the previous 72 hours. | See also: Recent months at Mount Ginini
Date/Time
EST
Temp
°C
App
Temp
°C
Dew
Point
Rel
Hum
%
Delta-T
°C
Wind Press
QNH
hPa
Press
MSL
hPa
Rain
since 9 am
mm
Dir
 
Spd
km/h
Gust
km/h
Spd
kts
Gust
kts
18/05:30pm 0.4 -5.9 -6.0 62 2.3 SW 19 35 10 19 - - 0.0
18/05:00pm 2.1 -3.7 -4.8 60 2.7 WSW 17 32 9 17 - - 0.0
18/04:30pm 2.7 -3.1 -4.7 58 2.9 WSW 17 37 9 20 - - 0.0
18/04:00pm 2.2 -4.0 -4.7 60 2.7 SW 19 33 10 18 - - 0.0
18/03:30pm 3.0 -3.4 -4.7 57 2.9 SW 20 41 11 22 - - 0.0
18/03:00pm 3.2 -2.7 -5.2 54 3.1 W 17 33 9 18 - - 0.0
18/02:30pm 5.3 0.0 -3.5 53 3.5 WSW 15 28 8 15 - - 0.0
18/02:00pm 5.2 0.3 -3.6 53 3.5 W 13 32 7 17 - - 0.0
18/01:30pm 6.1 2.1 -2.2 55 3.4 WSW 9 19 5 10 - - 0.0
18/01:00pm 5.3 0.8 -3.0 55 3.3 W 11 20 6 11 - - 0.0
18/12:30pm 4.2 -0.3 -3.5 57 3.0 WSW 11 24 6 13 - - 0.0
18/12:00pm 3.6 -0.6 -3.6 59 2.8 SW 9 24 5 13 - - 0.0
18/11:30am 3.2 -1.3 -3.4 62 2.5 SSW 11 22 6 12 - - 0.0
18/11:00am 3.1 -0.9 -2.2 68 2.1 WSW 9 17 5 9 - - 0.0
18/10:30am 1.7 -2.5 -3.8 67 2.2 SW 9 22 5 12 - - 0.0
18/10:00am 0.8 -3.8 -4.0 70 1.8 SSW 11 20 6 11 - - 0.0
18/09:30am 0.2 -5.0 -2.7 81 1.1 SSW 15 24 8 13 - - 0.0
18/09:00am -0.7 -6.1 -1.5 94 0.3 SSW 17 24 9 13 - - 0.2
18/08:30am -1.9 -7.8 -2.5 96 0.1 SSW 19 35 10 19 - - 0.2
18/08:00am -3.4 -10.4 -3.8 97 0.0 SSW 24 39 13 21 - - 0.2
18/07:30am -4.0 -10.7 -4.4 97 0.0 SSW 22 35 12 19 - - 0.2
18/07:00am -3.9 -10.6 -4.3 97 0.0 SSW 22 33 12 18 - - 0.2
18/06:30am -4.3 -11.1 -4.7 97 -0.1 SW 22 35 12 19 - - 0.2
18/06:00am -4.7 -11.9 -5.1 97 -0.1 SW 24 32 13 17 - - 0.2
18/05:30am -4.7 -10.9 -5.1 97 -0.1 SW 19 28 10 15 - - 0.2
18/05:00am -4.5 -10.7 -4.9 97 -0.1 SW 19 32 10 17 - - 0.2
18/04:30am -4.5 -10.9 -5.0 96 0.0 SW 20 33 11 18 - - 0.2
18/04:00am -4.3 -10.1 -4.8 96 0.0 SW 17 26 9 14 - - 0.2
18/03:30am -4.4 -10.8 -5.1 95 0.0 SW 20 33 11 18 - - 0.2
18/03:00am -4.2 -10.4 -4.9 95 0.1 SW 19 37 10 20 - - 0.2
18/02:30am -4.1 -10.3 -4.9 94 0.1 WSW 19 35 10 19 - - 0.2
18/02:00am -3.5 -10.6 -4.5 93 0.2 WSW 24 43 13 23 - - 0.2
18/01:30am -3.2 -10.6 -4.0 94 0.1 WSW 26 46 14 25 - - 0.2
18/01:00am -3.0 -10.0 -3.8 94 0.1 WSW 24 48 13 26 - - 0.2
18/12:30am -2.4 -10.1 -3.1 95 0.1 WSW 28 57 15 31 - - 0.2
18/12:00am -2.2 -10.3 -2.9 95 0.2 WSW 30 56 16 30 - - 0.2
 
Date/Time
EST
Temp
°C
App
Temp
°C
Dew
Point
Rel
Hum
%
Delta-T
°C
Wind Press
QNH
hPa
Press
MSL
hPa
Rain
since 9 am
mm
Dir
 
Spd
km/h
Gust
km/h
Spd
kts
Gust
kts
17/11:30pm -2.1 -9.8 -2.8 95 0.2 WSW 28 52 15 28 - - 0.2
17/11:00pm -2.0 -11.0 -2.7 95 0.2 WSW 35 67 19 36 - - 0.2
17/10:30pm -1.9 -9.9 -2.6 95 0.2 WSW 30 57 16 31 - - 0.2
17/10:00pm -1.8 -9.4 -2.5 95 0.2 WSW 28 56 15 30 - - 0.2
17/09:30pm -1.4 -9.0 -2.0 96 0.2 WSW 28 50 15 27 - - 0.2
17/09:00pm -1.1 -9.6 -1.8 95 0.2 WSW 33 70 18 38 - - 0.2
17/08:42pm -1.0 -8.5 -1.7 95 0.2 WSW 28 54 15 29 - - 0.2
17/08:30pm -1.0 -7.4 -1.7 95 0.2 WSW 22 48 12 26 - - 0.2
17/08:00pm -1.0 -8.5 -1.7 95 0.2 W 28 50 15 27 - - 0.2
17/07:30pm -1.0 -9.3 -1.8 94 0.3 WSW 32 54 17 29 - - 0.2
17/07:01pm -1.0 -8.6 -1.8 94 0.3 WSW 28 59 15 32 - - 0.2
17/07:00pm -1.0 -8.2 -1.8 94 0.3 WSW 26 59 14 32 - - 0.2
17/06:36pm -0.9 -8.5 -1.9 93 0.3 WSW 28 56 15 30 - - 0.2
17/06:30pm -0.8 -7.9 -1.6 94 0.3 WSW 26 52 14 28 - - 0.2
17/06:08pm -0.4 -7.9 -1.2 94 0.3 WSW 28 54 15 29 - - 0.2
17/06:00pm -0.5 -7.6 -1.3 94 0.3 WSW 26 54 14 29 - - 0.2
17/05:35pm 0.1 -7.3 -0.6 95 0.3 W 28 50 15 27 - - 0.2
17/05:30pm 0.2 -6.8 -0.5 95 0.3 W 26 50 14 27 - - 0.2
17/05:06pm 0.5 -6.8 -0.2 95 0.3 WSW 28 54 15 29 - - 0.2
17/05:00pm 0.5 -6.1 -0.2 95 0.3 WSW 24 54 13 29 - - 0.2
17/04:38pm 0.6 -6.7 -0.1 95 0.3 WSW 28 52 15 28 - - 0.2
17/04:30pm 0.5 -6.1 -0.4 94 0.4 WSW 24 52 13 28 - - 0.2
17/04:17pm 1.2 -6.1 0.3 94 0.4 W 28 52 15 28 - - 0.2
17/04:00pm 0.9 -4.9 0.2 95 0.3 WSW 20 37 11 20 - - 0.0
17/03:30pm 1.5 -5.0 0.3 92 0.5 WSW 24 52 13 28 - - 0.0
17/03:00pm 2.3 -4.9 0.8 90 0.6 W 28 50 15 27 - - 0.0
17/02:56pm 1.7 -5.5 0.5 92 0.5 W 28 50 15 27 - - 0.0
17/02:30pm 1.6 -5.1 -1.3 81 1.2 WSW 24 43 13 23 - - 0.0
17/02:00pm 0.9 -5.8 -1.0 87 0.8 W 24 50 13 27 - - 0.0
17/01:44pm 1.5 -6.0 -1.4 81 1.2 W 28 54 15 29 - - 0.0
17/01:30pm 1.8 -4.2 0.8 93 0.4 W 22 44 12 24 - - 0.0
17/01:19pm 1.6 -5.9 -1.6 79 1.3 W 28 46 15 25 - - 0.0
17/01:00pm 1.6 -5.2 -1.6 79 1.3 W 24 50 13 27 - - 0.0
17/12:30pm 2.3 -3.7 -1.8 74 1.6 W 20 48 11 26 - - 0.0
17/12:00pm 2.3 -3.6 -2.0 73 1.7 WSW 19 41 10 22 - - 0.0
17/11:30am 1.4 -4.8 -2.9 73 1.7 WSW 20 43 11 23 - - 0.0
17/11:00am 1.1 -5.5 -3.2 73 1.7 WSW 22 50 12 27 - - 0.0
17/10:30am 0.5 -5.7 -0.5 93 0.4 SW 22 43 12 23 - - 0.0
17/10:00am 2.3 -4.0 1.4 94 0.4 WSW 24 50 13 27 - - 0.0
17/09:30am 0.6 -6.4 -0.3 94 0.4 WSW 26 54 14 29 - - 0.0
17/09:00am 0.2 -6.4 -0.5 95 0.3 WSW 24 50 13 27 - - 0.2
17/08:57am 0.1 -7.3 -0.6 95 0.3 WSW 28 50 15 27 - - 0.2
17/08:30am -0.2 -6.4 -0.6 97 0.1 WSW 22 43 12 23 - - 0.2
17/08:00am -0.6 -6.9 -0.9 98 0.1 WSW 22 37 12 20 - - 0.2
17/07:30am -0.7 -6.4 -1.0 98 0.1 WSW 19 37 10 20 - - 0.2
17/07:00am -1.0 -7.7 -1.3 98 0.1 WSW 24 41 13 22 - - 0.2
17/06:30am -1.4 -8.6 -1.7 98 0.0 SW 26 48 14 26 - - 0.2
17/06:10am -1.3 -8.8 -1.6 98 0.0 WSW 28 50 15 27 - - 0.2
17/06:00am -1.2 -8.0 -1.5 98 0.1 WSW 24 46 13 25 - - 0.2
17/05:30am -0.8 -6.5 -1.1 98 0.1 WSW 19 37 10 20 - - 0.2
17/05:00am -0.3 -6.0 -0.6 98 0.1 WSW 19 39 10 21 - - 0.2
17/04:30am 0.4 -4.8 0.1 98 0.1 WSW 17 32 9 17 - - 0.2
17/04:00am 0.7 -4.5 0.4 98 0.1 WSW 17 39 9 21 - - 0.2
17/03:30am 1.1 -4.0 0.8 98 0.1 WSW 17 39 9 21 - - 0.2
17/03:00am 1.3 -3.8 1.0 98 0.1 WSW 17 32 9 17 - - 0.2
17/02:30am 1.6 -3.8 1.3 98 0.1 WSW 19 32 10 17 - - 0.2
17/02:00am 1.9 -3.4 1.6 98 0.1 WSW 19 33 10 18 - - 0.2
17/01:30am 2.0 -2.9 1.7 98 0.1 WSW 17 32 9 17 - - 0.2
17/01:00am 2.1 -3.8 1.8 98 0.1 WSW 22 41 12 22 - - 0.2
17/12:30am 2.3 -3.2 2.0 98 0.1 WSW 20 41 11 22 - - 0.2
17/12:00am 2.2 -3.1 1.9 98 0.1 WSW 19 41 10 22 - - 0.2
 
Date/Time
EST
Temp
°C
App
Temp
°C
Dew
Point
Rel
Hum
%
Delta-T
°C
Wind Press
QNH
hPa
Press
MSL
hPa
Rain
since 9 am
mm
Dir
 
Spd
km/h
Gust
km/h
Spd
kts
Gust
kts
16/11:30pm 2.4 -2.9 2.1 98 0.1 WSW 19 35 10 19 - - 0.2
16/11:00pm 2.4 -2.5 2.1 98 0.1 WSW 17 35 9 19 - - 0.2
16/10:30pm 2.4 -4.2 2.1 98 0.1 WSW 26 48 14 26 - - 0.2
16/10:00pm 2.2 -3.3 1.9 98 0.1 WSW 20 35 11 19 - - 0.2
16/09:30pm 2.1 -3.2 1.8 98 0.1 WSW 19 33 10 18 - - 0.2
16/09:00pm 2.5 -2.9 2.2 98 0.1 WSW 20 33 11 18 - - 0.0
16/08:30pm 2.6 -2.6 2.3 98 0.1 WSW 19 33 10 18 - - 0.0
16/08:00pm 2.5 -2.7 2.2 98 0.1 WSW 19 32 10 17 - - 0.0
16/07:30pm 2.4 -3.1 2.1 98 0.1 W 20 43 11 23 - - 0.0
16/07:00pm 2.4 -3.4 2.1 98 0.1 W 22 41 12 22 - - 0.0
16/06:30pm 2.3 -4.7 2.0 98 0.1 WSW 28 44 15 24 - - 0.0
16/06:00pm 2.4 -3.4 2.1 98 0.1 W 22 46 12 25 - - 0.0
16/05:30pm 2.8 -2.4 2.4 97 0.2 W 19 37 10 20 - - 0.0
16/05:00pm 3.3 -1.5 2.7 96 0.3 WSW 17 30 9 16 - - 0.0
16/04:30pm 3.6 -1.7 3.2 97 0.2 W 20 39 11 21 - - 0.0
16/04:00pm 3.4 -1.9 3.1 98 0.1 W 20 43 11 23 - - 0.0
16/03:30pm 3.3 0.1 3.0 98 0.1 WSW 9 32 5 17 - - 0.0
16/03:00pm 3.4 -0.9 3.0 97 0.2 W 15 26 8 14 - - 0.0
16/02:30pm 3.9 -0.4 3.2 95 0.3 WNW 15 30 8 16 - - 0.0
16/02:00pm 7.2 4.6 6.1 93 0.6 W 9 19 5 10 - - 0.0
16/01:30pm 5.6 1.2 4.7 94 0.4 WNW 17 28 9 15 - - 0.0
16/01:00pm 5.0 0.9 4.1 94 0.4 W 15 28 8 15 - - 0.0
16/12:30pm 4.1 -1.2 3.2 94 0.4 WNW 20 35 11 19 - - 0.0
16/12:00pm 6.5 3.0 5.6 94 0.4 WNW 13 24 7 13 - - 0.0
16/11:30am 9.0 6.9 8.1 94 0.5 NW 9 20 5 11 - - 0.0
16/11:00am 6.4 2.5 5.5 94 0.4 WNW 15 28 8 15 - - 0.0
16/10:30am 8.7 6.1 7.8 94 0.5 NW 11 26 6 14 - - 0.0
16/10:00am 7.3 4.5 6.9 97 0.2 NW 11 24 6 13 - - 0.0
16/09:30am 6.6 3.7 6.3 98 0.2 NNW 11 22 6 12 - - 0.0
16/09:00am 4.4 -0.1 4.3 99 0.0 N 17 32 9 17 - - 1.4
16/08:30am 4.1 -0.4 4.0 99 0.0 N 17 30 9 16 - - 1.4
16/08:00am 3.6 -1.1 3.3 98 0.1 NNE 17 35 9 19 - - 1.4
16/07:30am 3.4 -1.3 3.1 98 0.1 NNE 17 33 9 18 - - 1.4
16/07:00am 3.1 -1.3 2.8 98 0.1 NE 15 30 8 16 - - 1.4
16/06:30am 2.9 -2.3 2.5 97 0.2 ENE 19 30 10 16 - - 1.4
16/06:00am 2.8 -2.1 2.2 96 0.3 ENE 17 28 9 15 - - 1.4
16/05:30am 3.4 -1.4 2.7 95 0.3 NE 17 28 9 15 - - 1.4
16/05:00am 3.1 -1.4 2.2 94 0.4 NE 15 24 8 13 - - 1.4
16/04:30am 4.0 -0.3 3.1 94 0.4 NE 15 30 8 16 - - 1.4
16/04:00am 3.9 1.1 3.2 95 0.3 NE 7 15 4 8 - - 1.4
16/03:30am 2.9 -0.8 2.3 96 0.3 NNE 11 24 6 13 - - 1.4
16/03:00am 3.4 -2.3 2.8 96 0.3 N 22 43 12 23 - - 0.8
16/02:30am 4.3 -0.4 3.4 94 0.4 N 17 30 9 16 - - 0.6
16/02:00am 4.2 0.3 3.5 95 0.3 NNE 13 20 7 11 - - 0.6
16/01:30am 4.0 0.5 3.3 95 0.3 N 11 22 6 12 - - 0.6
16/01:00am 4.1 0.2 3.5 96 0.3 NNE 13 22 7 12 - - 0.6
16/12:30am 3.9 0.0 3.6 98 0.1 N 13 26 7 14 - - 0.6
16/12:00am 3.4 -1.3 3.1 98 0.1 N 17 26 9 14 - - 0.6
 
Date/Time
EST
Temp
°C
App
Temp
°C
Dew
Point
Rel
Hum
%
Delta-T
°C
Wind Press
QNH
hPa
Press
MSL
hPa
Rain
since 9 am
mm
Dir
 
Spd
km/h
Gust
km/h
Spd
kts
Gust
kts
15/11:30pm 3.2 -1.2 2.9 98 0.1 NNE 15 24 8 13 - - 0.6
15/11:00pm 3.0 -1.0 2.7 98 0.1 NNE 13 22 7 12 - - 0.6
15/10:30pm 3.1 -1.7 2.8 98 0.1 NNE 17 26 9 14 - - 0.6
15/10:00pm 3.5 -1.2 3.1 97 0.2 NNE 17 28 9 15 - - 0.6
15/09:30pm 3.7 0.5 3.3 97 0.2 N 9 19 5 10 - - 0.6
15/09:00pm 4.0 0.5 3.3 95 0.3 NNW 11 19 6 10 - - 0.2
15/08:30pm 4.4 0.9 3.5 94 0.4 NNW 11 26 6 14 - - 0.0
15/08:00pm 4.8 1.0 3.9 94 0.4 NNW 13 24 7 13 - - 0.0
15/07:30pm 4.9 1.5 4.0 94 0.4 NNW 11 22 6 12 - - 0.0
15/07:00pm 5.1 0.6 4.2 94 0.4 NW 17 26 9 14 - - 0.0
15/06:30pm 5.2 1.9 4.3 94 0.4 NNW 11 20 6 11 - - 0.0
15/06:00pm 5.2 1.9 4.3 94 0.4 NW 11 19 6 10 - - 0.0

Other Formats:

Comma delimited format used in spreadsheet applications
http://www.bom.gov.au/fwo/IDN60801/IDN60801.95925.axf

JavaScript Object Notation format (JSON) in row-major order
http://www.bom.gov.au/fwo/IDN60801/IDN60801.95925.json